sensor_id;sensor_type;location;lat;lon;timestamp;P1;durP1;ratioP1;P2;durP2;ratioP2
5871;SDS011;2962;51.312;7.378;2023-04-03T00:00:19;5.03;;;1.90;;
5871;SDS011;2962;51.312;7.378;2023-04-03T00:02:45;7.10;;;2.30;;
5871;SDS011;2962;51.312;7.378;2023-04-03T00:05:10;2.20;;;2.10;;
5871;SDS011;2962;51.312;7.378;2023-04-03T00:07:35;2.13;;;2.03;;
5871;SDS011;2962;51.312;7.378;2023-04-03T00:10:01;2.73;;;2.20;;
5871;SDS011;2962;51.312;7.378;2023-04-03T00:12:26;1.67;;;1.67;;
5871;SDS011;2962;51.312;7.378;2023-04-03T00:14:51;2.50;;;2.40;;
5871;SDS011;2962;51.312;7.378;2023-04-03T00:17:17;3.27;;;2.20;;
5871;SDS011;2962;51.312;7.378;2023-04-03T00:19:42;2.47;;;1.63;;
5871;SDS011;2962;51.312;7.378;2023-04-03T00:22:07;3.70;;;1.90;;
5871;SDS011;2962;51.312;7.378;2023-04-03T00:24:33;2.17;;;2.03;;
5871;SDS011;2962;51.312;7.378;2023-04-03T00:26:58;2.73;;;1.73;;
5871;SDS011;2962;51.312;7.378;2023-04-03T00:29:23;2.30;;;2.20;;
5871;SDS011;2962;51.312;7.378;2023-04-03T00:31:50;1.60;;;1.50;;
5871;SDS011;2962;51.312;7.378;2023-04-03T00:34:15;3.47;;;2.80;;
5871;SDS011;2962;51.312;7.378;2023-04-03T00:36:40;7.23;;;2.10;;
5871;SDS011;2962;51.312;7.378;2023-04-03T00:39:05;2.17;;;2.03;;
5871;SDS011;2962;51.312;7.378;2023-04-03T00:41:31;1.77;;;1.67;;
5871;SDS011;2962;51.312;7.378;2023-04-03T00:43:56;6.50;;;2.57;;
5871;SDS011;2962;51.312;7.378;2023-04-03T00:46:22;4.70;;;3.33;;
5871;SDS011;2962;51.312;7.378;2023-04-03T00:48:48;2.90;;;1.83;;
5871;SDS011;2962;51.312;7.378;2023-04-03T00:51:14;2.03;;;1.90;;
5871;SDS011;2962;51.312;7.378;2023-04-03T00:53:49;2.58;;;2.17;;
5871;SDS011;2962;51.312;7.378;2023-04-03T00:56:20;2.20;;;2.10;;
5871;SDS011;2962;51.312;7.378;2023-04-03T00:58:50;2.80;;;2.40;;
5871;SDS011;2962;51.312;7.378;2023-04-03T01:01:25;3.20;;;2.28;;
5871;SDS011;2962;51.312;7.378;2023-04-03T01:03:52;1.52;;;1.52;;
5871;SDS011;2962;51.312;7.378;2023-04-03T01:06:19;4.07;;;1.97;;
5871;SDS011;2962;51.312;7.378;2023-04-03T01:08:48;2.00;;;1.90;;
5871;SDS011;2962;51.312;7.378;2023-04-03T01:11:15;2.55;;;2.13;;
5871;SDS011;2962;51.312;7.378;2023-04-03T01:13:40;2.63;;;2.20;;
5871;SDS011;2962;51.312;7.378;2023-04-03T01:16:06;1.97;;;1.90;;
5871;SDS011;2962;51.312;7.378;2023-04-03T01:18:32;2.40;;;1.98;;
5871;SDS011;2962;51.312;7.378;2023-04-03T01:26:39;2.47;;;2.35;;
5871;SDS011;2962;51.312;7.378;2023-04-03T01:29:05;2.60;;;2.40;;
5871;SDS011;2962;51.312;7.378;2023-04-03T01:31:47;2.57;;;2.13;;
5871;SDS011;2962;51.312;7.378;2023-04-03T01:34:14;4.25;;;1.95;;
5871;SDS011;2962;51.312;7.378;2023-04-03T01:36:40;4.53;;;2.57;;
5871;SDS011;2962;51.312;7.378;2023-04-03T01:39:05;2.30;;;2.10;;
5871;SDS011;2962;51.312;7.378;2023-04-03T01:41:31;6.93;;;2.60;;
5871;SDS011;2962;51.312;7.378;2023-04-03T01:43:57;2.50;;;1.90;;
5871;SDS011;2962;51.312;7.378;2023-04-03T01:46:22;2.17;;;1.90;;
5871;SDS011;2962;51.312;7.378;2023-04-03T01:48:47;2.10;;;2.00;;
5871;SDS011;2962;51.312;7.378;2023-04-03T01:51:14;2.08;;;1.95;;
5871;SDS011;2962;51.312;7.378;2023-04-03T01:53:40;2.93;;;2.30;;
5871;SDS011;2962;51.312;7.378;2023-04-03T01:56:05;3.00;;;2.80;;
5871;SDS011;2962;51.312;7.378;2023-04-03T01:58:31;2.23;;;2.13;;
5871;SDS011;2962;51.312;7.378;2023-04-03T02:00:56;6.00;;;2.33;;
5871;SDS011;2962;51.312;7.378;2023-04-03T02:03:21;2.53;;;2.40;;
5871;SDS011;2962;51.312;7.378;2023-04-03T02:05:47;3.03;;;2.37;;
5871;SDS011;2962;51.312;7.378;2023-04-03T02:08:12;2.67;;;2.10;;
5871;SDS011;2962;51.312;7.378;2023-04-03T02:10:38;3.87;;;2.20;;
5871;SDS011;2962;51.312;7.378;2023-04-03T02:13:04;2.77;;;2.30;;
5871;SDS011;2962;51.312;7.378;2023-04-03T02:15:30;2.47;;;2.37;;
5871;SDS011;2962;51.312;7.378;2023-04-03T02:17:55;4.13;;;2.53;;
5871;SDS011;2962;51.312;7.378;2023-04-03T02:20:20;2.13;;;1.87;;
5871;SDS011;2962;51.312;7.378;2023-04-03T02:22:46;2.70;;;2.50;;
5871;SDS011;2962;51.312;7.378;2023-04-03T02:25:12;5.70;;;2.27;;
5871;SDS011;2962;51.312;7.378;2023-04-03T02:27:37;2.00;;;1.90;;
5871;SDS011;2962;51.312;7.378;2023-04-03T02:30:03;2.27;;;2.17;;
5871;SDS011;2962;51.312;7.378;2023-04-03T02:32:30;3.03;;;2.05;;
5871;SDS011;2962;51.312;7.378;2023-04-03T02:34:55;3.13;;;2.90;;
5871;SDS011;2962;51.312;7.378;2023-04-03T02:37:21;2.53;;;1.80;;
5871;SDS011;2962;51.312;7.378;2023-04-03T02:39:46;2.13;;;2.00;;
5871;SDS011;2962;51.312;7.378;2023-04-03T02:42:11;2.63;;;1.73;;
5871;SDS011;2962;51.312;7.378;2023-04-03T02:44:37;2.27;;;2.17;;
5871;SDS011;2962;51.312;7.378;2023-04-03T02:47:03;3.50;;;2.30;;
5871;SDS011;2962;51.312;7.378;2023-04-03T02:49:29;1.67;;;1.57;;
5871;SDS011;2962;51.312;7.378;2023-04-03T02:51:54;2.40;;;1.83;;
5871;SDS011;2962;51.312;7.378;2023-04-03T02:54:20;2.10;;;1.90;;
5871;SDS011;2962;51.312;7.378;2023-04-03T02:56:45;2.73;;;2.00;;
5871;SDS011;2962;51.312;7.378;2023-04-03T02:59:11;2.40;;;2.10;;
5871;SDS011;2962;51.312;7.378;2023-04-03T03:01:36;2.50;;;2.00;;
5871;SDS011;2962;51.312;7.378;2023-04-03T03:04:01;2.00;;;1.90;;
5871;SDS011;2962;51.312;7.378;2023-04-03T03:06:27;2.67;;;2.17;;
5871;SDS011;2962;51.312;7.378;2023-04-03T03:08:53;1.73;;;1.73;;
5871;SDS011;2962;51.312;7.378;2023-04-03T03:11:18;2.33;;;1.77;;
5871;SDS011;2962;51.312;7.378;2023-04-03T03:13:43;3.40;;;1.90;;
5871;SDS011;2962;51.312;7.378;2023-04-03T03:16:09;2.33;;;2.07;;
5871;SDS011;2962;51.312;7.378;2023-04-03T03:18:34;2.03;;;1.90;;
5871;SDS011;2962;51.312;7.378;2023-04-03T03:21:00;5.30;;;2.33;;
5871;SDS011;2962;51.312;7.378;2023-04-03T03:23:28;2.20;;;2.10;;
5871;SDS011;2962;51.312;7.378;2023-04-03T03:25:55;2.90;;;2.28;;
5871;SDS011;2962;51.312;7.378;2023-04-03T03:28:25;3.30;;;2.47;;
5871;SDS011;2962;51.312;7.378;2023-04-03T03:30:50;4.40;;;2.40;;
5871;SDS011;2962;51.312;7.378;2023-04-03T03:33:16;2.90;;;2.50;;
5871;SDS011;2962;51.312;7.378;2023-04-03T03:35:42;2.78;;;2.25;;
5871;SDS011;2962;51.312;7.378;2023-04-03T03:38:08;4.27;;;2.63;;
5871;SDS011;2962;51.312;7.378;2023-04-03T03:40:33;9.80;;;2.10;;
5871;SDS011;2962;51.312;7.378;2023-04-03T03:42:58;2.90;;;2.70;;
5871;SDS011;2962;51.312;7.378;2023-04-03T03:45:24;4.60;;;2.53;;
5871;SDS011;2962;51.312;7.378;2023-04-03T03:47:50;2.80;;;2.47;;
5871;SDS011;2962;51.312;7.378;2023-04-03T03:50:15;4.53;;;2.30;;
5871;SDS011;2962;51.312;7.378;2023-04-03T03:52:40;2.70;;;2.50;;
5871;SDS011;2962;51.312;7.378;2023-04-03T03:55:06;2.20;;;2.10;;
5871;SDS011;2962;51.312;7.378;2023-04-03T03:57:32;3.90;;;3.60;;
5871;SDS011;2962;51.312;7.378;2023-04-03T03:59:57;2.00;;;1.90;;
5871;SDS011;2962;51.312;7.378;2023-04-03T04:02:22;2.83;;;2.63;;
5871;SDS011;2962;51.312;7.378;2023-04-03T04:04:48;2.53;;;2.33;;
5871;SDS011;2962;51.312;7.378;2023-04-03T04:07:14;4.47;;;2.20;;
5871;SDS011;2962;51.312;7.378;2023-04-03T04:09:39;2.40;;;2.20;;
5871;SDS011;2962;51.312;7.378;2023-04-03T04:12:05;5.43;;;2.10;;
5871;SDS011;2962;51.312;7.378;2023-04-03T04:14:30;4.00;;;2.30;;
5871;SDS011;2962;51.312;7.378;2023-04-03T04:16:56;2.60;;;2.40;;
5871;SDS011;2962;51.312;7.378;2023-04-03T04:19:21;4.27;;;2.20;;
5871;SDS011;2962;51.312;7.378;2023-04-03T04:21:46;2.73;;;2.17;;
5871;SDS011;2962;51.312;7.378;2023-04-03T04:24:12;2.57;;;2.50;;
5871;SDS011;2962;51.312;7.378;2023-04-03T04:26:37;2.93;;;2.73;;
5871;SDS011;2962;51.312;7.378;2023-04-03T04:29:02;2.60;;;2.40;;
5871;SDS011;2962;51.312;7.378;2023-04-03T04:31:27;2.60;;;2.50;;
5871;SDS011;2962;51.312;7.378;2023-04-03T04:33:53;2.30;;;2.30;;
5871;SDS011;2962;51.312;7.378;2023-04-03T04:36:18;3.30;;;3.10;;
5871;SDS011;2962;51.312;7.378;2023-04-03T04:38:44;3.43;;;3.13;;
5871;SDS011;2962;51.312;7.378;2023-04-03T04:41:09;2.90;;;2.67;;
5871;SDS011;2962;51.312;7.378;2023-04-03T04:43:34;3.17;;;2.97;;
5871;SDS011;2962;51.312;7.378;2023-04-03T04:46:04;3.73;;;2.57;;
5871;SDS011;2962;51.312;7.378;2023-04-03T04:48:30;3.42;;;2.58;;
5871;SDS011;2962;51.312;7.378;2023-04-03T04:50:56;7.50;;;3.20;;
5871;SDS011;2962;51.312;7.378;2023-04-03T04:53:21;3.40;;;2.40;;
5871;SDS011;2962;51.312;7.378;2023-04-03T04:55:47;2.67;;;2.57;;
5871;SDS011;2962;51.312;7.378;2023-04-03T04:58:12;8.00;;;2.83;;
5871;SDS011;2962;51.312;7.378;2023-04-03T05:00:38;6.10;;;3.40;;
5871;SDS011;2962;51.312;7.378;2023-04-03T05:03:03;3.70;;;3.40;;
5871;SDS011;2962;51.312;7.378;2023-04-03T05:05:28;2.37;;;2.17;;
5871;SDS011;2962;51.312;7.378;2023-04-03T05:07:54;3.63;;;3.00;;
5871;SDS011;2962;51.312;7.378;2023-04-03T05:10:20;9.17;;;2.83;;
5871;SDS011;2962;51.312;7.378;2023-04-03T05:12:45;2.80;;;2.60;;
5871;SDS011;2962;51.312;7.378;2023-04-03T05:15:10;2.57;;;2.43;;
5871;SDS011;2962;51.312;7.378;2023-04-03T05:17:36;3.27;;;2.83;;
5871;SDS011;2962;51.312;7.378;2023-04-03T05:20:02;2.53;;;2.27;;
5871;SDS011;2962;51.312;7.378;2023-04-03T05:22:28;2.88;;;2.67;;
5871;SDS011;2962;51.312;7.378;2023-04-03T05:24:54;4.20;;;2.23;;
5871;SDS011;2962;51.312;7.378;2023-04-03T05:27:19;6.90;;;2.60;;
5871;SDS011;2962;51.312;7.378;2023-04-03T05:29:44;6.50;;;2.90;;
5871;SDS011;2962;51.312;7.378;2023-04-03T05:32:10;2.93;;;1.93;;
5871;SDS011;2962;51.312;7.378;2023-04-03T05:34:36;3.10;;;2.90;;
5871;SDS011;2962;51.312;7.378;2023-04-03T05:37:01;2.50;;;2.33;;
5871;SDS011;2962;51.312;7.378;2023-04-03T05:39:28;3.58;;;2.00;;
5871;SDS011;2962;51.312;7.378;2023-04-03T05:41:53;5.83;;;3.27;;
5871;SDS011;2962;51.312;7.378;2023-04-03T05:44:18;4.10;;;1.80;;
5871;SDS011;2962;51.312;7.378;2023-04-03T05:46:44;6.97;;;2.40;;
5871;SDS011;2962;51.312;7.378;2023-04-03T05:49:09;7.27;;;2.67;;
5871;SDS011;2962;51.312;7.378;2023-04-03T05:51:36;3.05;;;2.63;;
5871;SDS011;2962;51.312;7.378;2023-04-03T05:54:20;3.40;;;2.15;;
5871;SDS011;2962;51.312;7.378;2023-04-03T05:56:48;6.63;;;2.95;;
5871;SDS011;2962;51.312;7.378;2023-04-03T05:59:14;4.32;;;2.33;;
5871;SDS011;2962;51.312;7.378;2023-04-03T06:01:39;7.83;;;2.30;;
5871;SDS011;2962;51.312;7.378;2023-04-03T06:04:05;6.73;;;2.60;;
5871;SDS011;2962;51.312;7.378;2023-04-03T06:06:52;8.25;;;2.90;;
5871;SDS011;2962;51.312;7.378;2023-04-03T06:09:20;4.97;;;2.08;;
5871;SDS011;2962;51.312;7.378;2023-04-03T06:11:47;4.55;;;3.03;;
5871;SDS011;2962;51.312;7.378;2023-04-03T06:14:12;4.90;;;3.23;;
5871;SDS011;2962;51.312;7.378;2023-04-03T06:16:38;3.70;;;2.77;;
5871;SDS011;2962;51.312;7.378;2023-04-03T06:19:04;2.90;;;2.43;;
5871;SDS011;2962;51.312;7.378;2023-04-03T06:21:30;5.68;;;2.63;;
5871;SDS011;2962;51.312;7.378;2023-04-03T06:23:56;4.07;;;2.47;;
5871;SDS011;2962;51.312;7.378;2023-04-03T06:26:21;2.33;;;2.10;;
5871;SDS011;2962;51.312;7.378;2023-04-03T06:28:47;4.83;;;2.53;;
5871;SDS011;2962;51.312;7.378;2023-04-03T06:31:12;2.40;;;2.30;;
5871;SDS011;2962;51.312;7.378;2023-04-03T06:33:38;2.87;;;2.57;;
5871;SDS011;2962;51.312;7.378;2023-04-03T06:36:03;5.07;;;2.90;;
5871;SDS011;2962;51.312;7.378;2023-04-03T06:38:30;5.28;;;2.60;;
5871;SDS011;2962;51.312;7.378;2023-04-03T06:40:56;7.03;;;2.63;;
5871;SDS011;2962;51.312;7.378;2023-04-03T06:43:21;2.47;;;2.20;;
5871;SDS011;2962;51.312;7.378;2023-04-03T06:45:47;4.60;;;2.40;;
5871;SDS011;2962;51.312;7.378;2023-04-03T06:48:12;7.47;;;3.97;;
5871;SDS011;2962;51.312;7.378;2023-04-03T06:50:38;3.60;;;3.23;;
5871;SDS011;2962;51.312;7.378;2023-04-03T06:53:03;3.60;;;2.30;;
5871;SDS011;2962;51.312;7.378;2023-04-03T06:55:29;6.47;;;2.60;;
5871;SDS011;2962;51.312;7.378;2023-04-03T06:57:54;4.70;;;2.40;;
5871;SDS011;2962;51.312;7.378;2023-04-03T07:00:20;6.03;;;2.20;;
5871;SDS011;2962;51.312;7.378;2023-04-03T07:02:45;3.43;;;1.80;;
5871;SDS011;2962;51.312;7.378;2023-04-03T07:05:11;2.13;;;2.03;;
5871;SDS011;2962;51.312;7.378;2023-04-03T07:07:37;3.00;;;1.90;;
5871;SDS011;2962;51.312;7.378;2023-04-03T07:10:03;4.13;;;1.60;;
5871;SDS011;2962;51.312;7.378;2023-04-03T07:12:30;3.20;;;2.17;;
5871;SDS011;2962;51.312;7.378;2023-04-03T07:14:55;2.10;;;2.10;;
5871;SDS011;2962;51.312;7.378;2023-04-03T07:17:21;2.87;;;2.50;;
5871;SDS011;2962;51.312;7.378;2023-04-03T07:19:46;1.93;;;1.83;;
5871;SDS011;2962;51.312;7.378;2023-04-03T07:22:11;2.47;;;1.90;;
5871;SDS011;2962;51.312;7.378;2023-04-03T07:24:37;2.10;;;2.00;;
5871;SDS011;2962;51.312;7.378;2023-04-03T07:27:02;1.63;;;1.53;;
5871;SDS011;2962;51.312;7.378;2023-04-03T07:29:28;2.77;;;2.03;;
5871;SDS011;2962;51.312;7.378;2023-04-03T07:31:53;2.00;;;1.90;;
5871;SDS011;2962;51.312;7.378;2023-04-03T07:34:20;2.38;;;2.00;;
5871;SDS011;2962;51.312;7.378;2023-04-03T07:36:45;2.93;;;1.70;;
5871;SDS011;2962;51.312;7.378;2023-04-03T07:39:10;4.17;;;2.43;;
5871;SDS011;2962;51.312;7.378;2023-04-03T07:41:36;6.03;;;2.13;;
5871;SDS011;2962;51.312;7.378;2023-04-03T07:44:01;1.40;;;1.40;;
5871;SDS011;2962;51.312;7.378;2023-04-03T07:46:27;1.63;;;1.50;;
5871;SDS011;2962;51.312;7.378;2023-04-03T07:48:53;3.27;;;1.80;;
5871;SDS011;2962;51.312;7.378;2023-04-03T07:51:18;3.07;;;1.80;;
5871;SDS011;2962;51.312;7.378;2023-04-03T07:53:44;3.60;;;1.73;;
5871;SDS011;2962;51.312;7.378;2023-04-03T07:56:09;1.83;;;1.53;;
5871;SDS011;2962;51.312;7.378;2023-04-03T07:58:34;5.60;;;1.60;;
5871;SDS011;2962;51.312;7.378;2023-04-03T08:01:00;2.47;;;1.67;;
5871;SDS011;2962;51.312;7.378;2023-04-03T08:03:26;1.67;;;1.57;;
5871;SDS011;2962;51.312;7.378;2023-04-03T08:05:51;3.97;;;1.70;;
5871;SDS011;2962;51.312;7.378;2023-04-03T08:08:19;2.70;;;1.70;;
5871;SDS011;2962;51.312;7.378;2023-04-03T08:10:51;2.85;;;1.98;;
5871;SDS011;2962;51.312;7.378;2023-04-03T08:13:18;3.72;;;1.45;;
5871;SDS011;2962;51.312;7.378;2023-04-03T08:15:44;3.97;;;1.50;;
5871;SDS011;2962;51.312;7.378;2023-04-03T08:18:09;2.77;;;1.83;;
5871;SDS011;2962;51.312;7.378;2023-04-03T08:20:34;3.03;;;1.53;;
5871;SDS011;2962;51.312;7.378;2023-04-03T08:23:00;3.93;;;1.73;;
5871;SDS011;2962;51.312;7.378;2023-04-03T08:25:25;5.10;;;1.73;;
5871;SDS011;2962;51.312;7.378;2023-04-03T08:27:51;7.40;;;2.30;;
5871;SDS011;2962;51.312;7.378;2023-04-03T08:30:16;2.13;;;0.97;;
5871;SDS011;2962;51.312;7.378;2023-04-03T08:32:42;5.10;;;1.97;;
5871;SDS011;2962;51.312;7.378;2023-04-03T08:35:08;2.20;;;1.23;;
5871;SDS011;2962;51.312;7.378;2023-04-03T08:37:35;2.93;;;1.80;;
5871;SDS011;2962;51.312;7.378;2023-04-03T08:40:01;1.73;;;1.20;;
5871;SDS011;2962;51.312;7.378;2023-04-03T08:45:33;4.43;;;1.43;;
5871;SDS011;2962;51.312;7.378;2023-04-03T08:48:06;3.63;;;1.30;;
5871;SDS011;2962;51.312;7.378;2023-04-03T08:50:38;1.57;;;1.40;;
5871;SDS011;2962;51.312;7.378;2023-04-03T08:53:11;2.50;;;1.87;;
5871;SDS011;2962;51.312;7.378;2023-04-03T08:55:43;1.50;;;1.40;;
5871;SDS011;2962;51.312;7.378;2023-04-03T08:58:12;3.03;;;1.93;;
5871;SDS011;2962;51.312;7.378;2023-04-03T09:00:44;3.27;;;2.03;;
5871;SDS011;2962;51.312;7.378;2023-04-03T09:03:13;2.97;;;1.60;;
5871;SDS011;2962;51.312;7.378;2023-04-03T09:08:29;1.53;;;1.43;;
5871;SDS011;2962;51.312;7.378;2023-04-03T09:17:20;3.63;;;1.27;;
5871;SDS011;2962;51.312;7.378;2023-04-03T09:22:02;2.63;;;1.37;;
5871;SDS011;2962;51.312;7.378;2023-04-03T09:24:38;8.67;;;1.50;;
5871;SDS011;2962;51.312;7.378;2023-04-03T09:27:06;5.23;;;1.67;;
5871;SDS011;2962;51.312;7.378;2023-04-03T09:29:35;4.53;;;1.03;;
5871;SDS011;2962;51.312;7.378;2023-04-03T09:35:01;1.50;;;1.37;;
5871;SDS011;2962;51.312;7.378;2023-04-03T09:37:41;0.80;;;0.80;;
5871;SDS011;2962;51.312;7.378;2023-04-03T09:43:02;1.40;;;1.30;;
5871;SDS011;2962;51.312;7.378;2023-04-03T09:45:48;2.87;;;1.43;;
5871;SDS011;2962;51.312;7.378;2023-04-03T09:48:17;1.50;;;1.40;;
5871;SDS011;2962;51.312;7.378;2023-04-03T09:53:25;1.40;;;1.17;;
5871;SDS011;2962;51.312;7.378;2023-04-03T09:55:55;1.73;;;0.90;;
5871;SDS011;2962;51.312;7.378;2023-04-03T09:58:26;1.03;;;0.87;;
5871;SDS011;2962;51.312;7.378;2023-04-03T10:00:57;1.07;;;0.90;;
5871;SDS011;2962;51.312;7.378;2023-04-03T10:03:34;1.90;;;0.57;;
5871;SDS011;2962;51.312;7.378;2023-04-03T10:06:04;1.13;;;0.50;;
5871;SDS011;2962;51.312;7.378;2023-04-03T10:08:58;2.30;;;0.70;;
5871;SDS011;2962;51.312;7.378;2023-04-03T10:11:26;2.07;;;0.53;;
5871;SDS011;2962;51.312;7.378;2023-04-03T10:13:53;0.63;;;0.40;;
5871;SDS011;2962;51.312;7.378;2023-04-03T10:16:35;1.60;;;0.80;;
5871;SDS011;2962;51.312;7.378;2023-04-03T10:19:27;0.50;;;0.50;;
5871;SDS011;2962;51.312;7.378;2023-04-03T10:22:15;1.97;;;0.60;;
5871;SDS011;2962;51.312;7.378;2023-04-03T10:24:58;0.83;;;0.70;;
5871;SDS011;2962;51.312;7.378;2023-04-03T10:32:55;0.57;;;0.57;;
5871;SDS011;2962;51.312;7.378;2023-04-03T10:35:37;1.77;;;0.50;;
5871;SDS011;2962;51.312;7.378;2023-04-03T10:38:55;0.90;;;0.73;;
5871;SDS011;2962;51.312;7.378;2023-04-03T10:46:48;0.80;;;0.70;;
5871;SDS011;2962;51.312;7.378;2023-04-03T10:51:58;5.20;;;0.87;;
5871;SDS011;2962;51.312;7.378;2023-04-03T10:54:36;1.63;;;0.77;;
5871;SDS011;2962;51.312;7.378;2023-04-03T10:57:08;0.50;;;0.47;;
5871;SDS011;2962;51.312;7.378;2023-04-03T10:59:37;0.87;;;0.87;;
5871;SDS011;2962;51.312;7.378;2023-04-03T11:02:10;1.23;;;0.90;;
5871;SDS011;2962;51.312;7.378;2023-04-03T11:05:01;0.70;;;0.70;;
5871;SDS011;2962;51.312;7.378;2023-04-03T11:07:33;0.83;;;0.60;;
5871;SDS011;2962;51.312;7.378;2023-04-03T11:10:05;0.93;;;0.93;;
5871;SDS011;2962;51.312;7.378;2023-04-03T11:12:42;0.90;;;0.77;;
5871;SDS011;2962;51.312;7.378;2023-04-03T11:15:18;1.20;;;0.67;;
5871;SDS011;2962;51.312;7.378;2023-04-03T11:17:48;0.83;;;0.83;;
5871;SDS011;2962;51.312;7.378;2023-04-03T11:20:36;1.50;;;1.10;;
5871;SDS011;2962;51.312;7.378;2023-04-03T11:23:03;0.80;;;0.80;;
5871;SDS011;2962;51.312;7.378;2023-04-03T11:25:35;2.10;;;0.80;;
5871;SDS011;2962;51.312;7.378;2023-04-03T11:28:11;2.93;;;0.90;;
5871;SDS011;2962;51.312;7.378;2023-04-03T11:31:15;1.17;;;0.70;;
5871;SDS011;2962;51.312;7.378;2023-04-03T11:33:58;0.70;;;0.70;;
5871;SDS011;2962;51.312;7.378;2023-04-03T11:36:50;1.37;;;0.77;;
5871;SDS011;2962;51.312;7.378;2023-04-03T11:39:27;1.20;;;0.80;;
5871;SDS011;2962;51.312;7.378;2023-04-03T11:42:12;0.70;;;0.70;;
5871;SDS011;2962;51.312;7.378;2023-04-03T11:44:40;0.70;;;0.70;;
5871;SDS011;2962;51.312;7.378;2023-04-03T11:47:07;1.83;;;0.80;;
5871;SDS011;2962;51.312;7.378;2023-04-03T12:14:01;1.83;;;1.37;;
5871;SDS011;2962;51.312;7.378;2023-04-03T12:16:30;0.90;;;0.90;;
5871;SDS011;2962;51.312;7.378;2023-04-03T12:19:00;2.20;;;0.97;;
5871;SDS011;2962;51.312;7.378;2023-04-03T12:26:41;0.80;;;0.80;;
5871;SDS011;2962;51.312;7.378;2023-04-03T12:29:21;1.00;;;1.00;;
5871;SDS011;2962;51.312;7.378;2023-04-03T12:37:24;0.90;;;0.90;;
5871;SDS011;2962;51.312;7.378;2023-04-03T12:40:16;1.10;;;1.00;;
5871;SDS011;2962;51.312;7.378;2023-04-03T12:46:04;1.50;;;1.07;;
5871;SDS011;2962;51.312;7.378;2023-04-03T12:51:19;3.23;;;1.00;;
5871;SDS011;2962;51.312;7.378;2023-04-03T12:53:48;0.97;;;0.97;;
5871;SDS011;2962;51.312;7.378;2023-04-03T12:56:19;2.23;;;0.90;;
5871;SDS011;2962;51.312;7.378;2023-04-03T12:58:50;0.80;;;0.80;;
5871;SDS011;2962;51.312;7.378;2023-04-03T13:01:19;0.90;;;0.90;;
5871;SDS011;2962;51.312;7.378;2023-04-03T13:03:48;1.20;;;1.10;;
5871;SDS011;2962;51.312;7.378;2023-04-03T13:06:21;1.03;;;1.03;;
5871;SDS011;2962;51.312;7.378;2023-04-03T13:08:59;0.90;;;0.90;;
5871;SDS011;2962;51.312;7.378;2023-04-03T13:11:34;2.07;;;1.20;;
5871;SDS011;2962;51.312;7.378;2023-04-03T13:14:05;1.17;;;1.17;;
5871;SDS011;2962;51.312;7.378;2023-04-03T13:16:40;2.60;;;1.20;;
5871;SDS011;2962;51.312;7.378;2023-04-03T13:19:06;1.27;;;1.10;;
5871;SDS011;2962;51.312;7.378;2023-04-03T13:21:41;1.10;;;1.10;;
5871;SDS011;2962;51.312;7.378;2023-04-03T13:24:07;4.20;;;1.40;;
5871;SDS011;2962;51.312;7.378;2023-04-03T13:26:34;1.60;;;0.97;;
5871;SDS011;2962;51.312;7.378;2023-04-03T13:29:03;4.70;;;1.07;;
5871;SDS011;2962;51.312;7.378;2023-04-03T13:31:33;1.50;;;1.40;;
5871;SDS011;2962;51.312;7.378;2023-04-03T13:34:34;1.10;;;1.00;;
5871;SDS011;2962;51.312;7.378;2023-04-03T13:36:58;1.07;;;1.07;;
5871;SDS011;2962;51.312;7.378;2023-04-03T13:39:27;1.30;;;1.20;;
5871;SDS011;2962;51.312;7.378;2023-04-03T13:41:59;0.80;;;0.80;;
5871;SDS011;2962;51.312;7.378;2023-04-03T13:46:58;1.13;;;1.10;;
5871;SDS011;2962;51.312;7.378;2023-04-03T13:50:03;1.43;;;1.30;;
5871;SDS011;2962;51.312;7.378;2023-04-03T13:52:52;1.33;;;1.07;;
5871;SDS011;2962;51.312;7.378;2023-04-03T13:58:24;1.63;;;1.50;;
5871;SDS011;2962;51.312;7.378;2023-04-03T14:00:53;2.50;;;1.60;;
5871;SDS011;2962;51.312;7.378;2023-04-03T14:03:23;1.50;;;1.50;;
5871;SDS011;2962;51.312;7.378;2023-04-03T14:05:55;1.53;;;1.43;;
5871;SDS011;2962;51.312;7.378;2023-04-03T14:08:21;1.63;;;1.20;;
5871;SDS011;2962;51.312;7.378;2023-04-03T14:10:47;1.30;;;1.30;;
5871;SDS011;2962;51.312;7.378;2023-04-03T14:13:14;1.20;;;1.10;;
5871;SDS011;2962;51.312;7.378;2023-04-03T14:15:42;2.03;;;1.10;;
5871;SDS011;2962;51.312;7.378;2023-04-03T14:18:12;2.53;;;1.13;;
5871;SDS011;2962;51.312;7.378;2023-04-03T14:20:39;2.37;;;1.70;;
5871;SDS011;2962;51.312;7.378;2023-04-03T14:23:04;1.33;;;1.33;;
5871;SDS011;2962;51.312;7.378;2023-04-03T14:25:30;1.30;;;1.20;;
5871;SDS011;2962;51.312;7.378;2023-04-03T14:27:55;1.20;;;1.20;;
5871;SDS011;2962;51.312;7.378;2023-04-03T14:30:23;2.83;;;1.60;;
5871;SDS011;2962;51.312;7.378;2023-04-03T14:32:51;1.10;;;1.10;;
5871;SDS011;2962;51.312;7.378;2023-04-03T14:35:16;1.40;;;1.40;;
5871;SDS011;2962;51.312;7.378;2023-04-03T14:37:42;1.90;;;1.13;;
5871;SDS011;2962;51.312;7.378;2023-04-03T14:40:11;1.07;;;1.07;;
5871;SDS011;2962;51.312;7.378;2023-04-03T14:42:40;1.90;;;1.90;;
5871;SDS011;2962;51.312;7.378;2023-04-03T14:45:07;1.10;;;1.10;;
5871;SDS011;2962;51.312;7.378;2023-04-03T14:47:43;0.93;;;0.93;;
5871;SDS011;2962;51.312;7.378;2023-04-03T14:50:16;1.17;;;1.10;;
5871;SDS011;2962;51.312;7.378;2023-04-03T14:52:46;1.17;;;1.17;;
5871;SDS011;2962;51.312;7.378;2023-04-03T14:55:16;2.53;;;1.83;;
5871;SDS011;2962;51.312;7.378;2023-04-03T14:57:43;4.67;;;1.87;;
5871;SDS011;2962;51.312;7.378;2023-04-03T15:00:13;1.47;;;1.37;;
5871;SDS011;2962;51.312;7.378;2023-04-03T15:02:43;1.40;;;1.40;;
5871;SDS011;2962;51.312;7.378;2023-04-03T15:05:10;1.60;;;1.60;;
5871;SDS011;2962;51.312;7.378;2023-04-03T15:07:45;2.10;;;1.67;;
5871;SDS011;2962;51.312;7.378;2023-04-03T15:10:16;2.10;;;1.20;;
5871;SDS011;2962;51.312;7.378;2023-04-03T15:12:43;1.43;;;1.33;;
5871;SDS011;2962;51.312;7.378;2023-04-03T15:15:09;1.10;;;1.10;;
5871;SDS011;2962;51.312;7.378;2023-04-03T15:17:35;1.33;;;1.00;;
5871;SDS011;2962;51.312;7.378;2023-04-03T15:20:01;1.33;;;1.27;;
5871;SDS011;2962;51.312;7.378;2023-04-03T15:22:27;1.90;;;1.20;;
5871;SDS011;2962;51.312;7.378;2023-04-03T15:24:53;1.30;;;1.23;;
5871;SDS011;2962;51.312;7.378;2023-04-03T15:27:18;1.70;;;1.37;;
5871;SDS011;2962;51.312;7.378;2023-04-03T15:29:44;6.60;;;1.50;;
5871;SDS011;2962;51.312;7.378;2023-04-03T15:32:10;2.03;;;1.40;;
5871;SDS011;2962;51.312;7.378;2023-04-03T15:34:36;1.63;;;1.53;;
5871;SDS011;2962;51.312;7.378;2023-04-03T15:37:02;2.27;;;1.43;;
5871;SDS011;2962;51.312;7.378;2023-04-03T15:39:27;2.00;;;1.20;;
5871;SDS011;2962;51.312;7.378;2023-04-03T15:41:53;1.30;;;1.30;;
5871;SDS011;2962;51.312;7.378;2023-04-03T15:44:19;1.50;;;1.40;;
5871;SDS011;2962;51.312;7.378;2023-04-03T15:46:45;1.50;;;1.40;;
5871;SDS011;2962;51.312;7.378;2023-04-03T15:49:13;1.17;;;1.13;;
5871;SDS011;2962;51.312;7.378;2023-04-03T15:51:39;1.20;;;1.20;;
5871;SDS011;2962;51.312;7.378;2023-04-03T15:54:04;1.60;;;1.50;;
5871;SDS011;2962;51.312;7.378;2023-04-03T15:56:29;1.70;;;1.60;;
5871;SDS011;2962;51.312;7.378;2023-04-03T15:58:55;1.50;;;1.40;;
5871;SDS011;2962;51.312;7.378;2023-04-03T16:01:20;1.93;;;1.67;;
5871;SDS011;2962;51.312;7.378;2023-04-03T16:03:46;3.23;;;1.43;;
5871;SDS011;2962;51.312;7.378;2023-04-03T16:06:15;1.10;;;1.10;;
5871;SDS011;2962;51.312;7.378;2023-04-03T16:08:41;1.93;;;1.60;;
5871;SDS011;2962;51.312;7.378;2023-04-03T16:11:07;2.93;;;1.40;;
5871;SDS011;2962;51.312;7.378;2023-04-03T16:13:33;2.20;;;1.40;;
5871;SDS011;2962;51.312;7.378;2023-04-03T16:15:59;2.10;;;1.30;;
5871;SDS011;2962;51.312;7.378;2023-04-03T16:18:26;1.30;;;1.20;;
5871;SDS011;2962;51.312;7.378;2023-04-03T16:20:52;1.20;;;1.20;;
5871;SDS011;2962;51.312;7.378;2023-04-03T16:23:17;1.43;;;1.27;;
5871;SDS011;2962;51.312;7.378;2023-04-03T16:25:43;2.07;;;1.80;;
5871;SDS011;2962;51.312;7.378;2023-04-03T16:28:11;1.03;;;1.03;;
5871;SDS011;2962;51.312;7.378;2023-04-03T16:30:37;1.00;;;1.00;;
5871;SDS011;2962;51.312;7.378;2023-04-03T16:33:05;1.93;;;1.70;;
5871;SDS011;2962;51.312;7.378;2023-04-03T16:35:30;1.37;;;1.27;;
5871;SDS011;2962;51.312;7.378;2023-04-03T16:37:56;2.20;;;1.40;;
5871;SDS011;2962;51.312;7.378;2023-04-03T16:40:21;1.83;;;1.73;;
5871;SDS011;2962;51.312;7.378;2023-04-03T16:42:46;1.93;;;1.77;;
5871;SDS011;2962;51.312;7.378;2023-04-03T16:45:12;1.43;;;1.27;;
5871;SDS011;2962;51.312;7.378;2023-04-03T16:47:37;4.20;;;1.53;;
5871;SDS011;2962;51.312;7.378;2023-04-03T16:50:02;6.20;;;1.60;;